Time;durP1;ratioP1;P1;durP2;ratioP2;P2;SDS_P1;SDS_P2;PMS_P1;PMS_P2;Temp;Humidity;BMP_temperature;BMP_pressure;BME280_temperature;BME280_humidity;BME280_pressure;Samples;Min_cycle;Max_cycle;Signal;HPM_P1;HPM_P2
2022/03/14 00:00:06;;;;;;;2.20;1.75;;;12.90;54.00;;;;;;9179179;19;20019;-67
2022/03/14 00:03:16;;;;;;;2.63;1.33;;;12.90;54.30;;;;;;9180836;19;20022;-66
2022/03/14 00:06:23;;;;;;;2.22;1.73;;;12.90;54.20;;;;;;9181878;19;20022;-66
2022/03/14 00:09:29;;;;;;;3.72;2.28;;;12.90;54.30;;;;;;9179643;19;20037;-69
2022/03/14 00:12:34;;;;;;;2.53;1.60;;;12.90;54.40;;;;;;9181841;19;20014;-67
2022/03/14 00:15:42;;;;;;;5.05;1.83;;;12.90;54.50;;;;;;9183017;19;20047;-68
2022/03/14 00:18:51;;;;;;;2.28;1.65;;;12.90;54.60;;;;;;9181335;19;20413;-66
2022/03/14 00:21:56;;;;;;;4.10;1.60;;;12.90;54.60;;;;;;9176483;19;20010;-67
2022/03/14 00:25:02;;;;;;;3.50;1.70;;;12.90;54.70;;;;;;9182090;19;20015;-66
2022/03/14 00:28:08;;;;;;;2.20;1.50;;;12.90;54.70;;;;;;9180603;19;20025;-69
2022/03/14 00:31:16;;;;;;;6.40;1.80;;;12.90;54.90;;;;;;9182682;19;20048;-68
2022/03/14 00:34:21;;;;;;;3.90;2.13;;;12.90;55.00;;;;;;9180781;19;20653;-67
2022/03/14 00:37:26;;;;;;;1.73;1.38;;;12.80;54.90;;;;;;9181198;19;20059;-67
2022/03/14 00:40:31;;;;;;;2.65;1.63;;;12.80;54.90;;;;;;9182253;19;20018;-66
2022/03/14 00:43:36;;;;;;;3.05;1.67;;;12.90;55.10;;;;;;9182542;19;20011;-69
2022/03/14 00:46:44;;;;;;;2.10;1.80;;;12.80;55.10;;;;;;9180836;19;20022;-65
2022/03/14 00:49:49;;;;;;;2.65;1.80;;;12.80;55.20;;;;;;9177682;19;20011;-68
2022/03/14 00:52:54;;;;;;;1.90;1.55;;;12.80;55.20;;;;;;9178738;19;20026;-70
2022/03/14 00:56:01;;;;;;;3.58;2.10;;;12.80;55.30;;;;;;9179774;19;20380;-69
2022/03/14 00:59:06;;;;;;;1.90;1.70;;;12.80;55.40;;;;;;9179172;19;20025;-67
2022/03/14 01:02:14;;;;;;;3.03;2.10;;;12.80;55.40;;;;;;9181659;19;20018;-70
2022/03/14 01:05:19;;;;;;;3.85;2.03;;;12.80;55.50;;;;;;9180755;19;20019;-67
2022/03/14 01:08:24;;;;;;;2.03;1.65;;;12.80;55.50;;;;;;9180440;19;20018;-67
2022/03/14 01:11:29;;;;;;;2.95;1.52;;;12.80;55.50;;;;;;9179957;19;20895;-66
2022/03/14 01:14:34;;;;;;;2.83;1.90;;;12.70;55.60;;;;;;9181765;19;20098;-69
2022/03/14 01:17:42;;;;;;;2.53;1.98;;;12.70;55.70;;;;;;9177990;19;20025;-69
2022/03/14 01:20:49;;;;;;;2.35;1.88;;;12.70;55.80;;;;;;9174634;19;20011;-68
2022/03/14 01:23:54;;;;;;;2.45;1.98;;;12.70;55.70;;;;;;9178722;19;20014;-67
2022/03/14 01:26:59;;;;;;;2.30;1.98;;;12.70;56.30;;;;;;9178802;19;20022;-67
2022/03/14 01:30:05;;;;;;;3.88;1.60;;;12.70;55.80;;;;;;9176329;19;20367;-68
2022/03/14 01:33:13;;;;;;;4.97;1.77;;;12.70;55.90;;;;;;9179117;19;20098;-66
2022/03/14 01:36:19;;;;;;;2.72;1.65;;;12.70;56.00;;;;;;9178767;19;20022;-66
2022/03/14 01:39:24;;;;;;;3.60;2.10;;;12.60;55.90;;;;;;9177672;19;20018;-67
2022/03/14 01:42:29;;;;;;;3.33;2.22;;;12.70;56.00;;;;;;9179950;19;20017;-66
2022/03/14 01:45:34;;;;;;;3.53;2.22;;;12.60;56.00;;;;;;9179533;19;20364;-65
2022/03/14 01:48:44;;;;;;;2.25;1.83;;;12.60;56.00;;;;;;9176944;19;20018;-67
2022/03/14 01:51:54;;;;;;;3.85;2.40;;;12.60;56.10;;;;;;9178942;19;20026;-67
2022/03/14 01:54:59;;;;;;;3.35;2.22;;;12.60;56.10;;;;;;9176419;19;20348;-66
2022/03/14 01:58:05;;;;;;;2.70;2.10;;;12.60;56.20;;;;;;9176499;19;20019;-68
2022/03/14 02:01:10;;;;;;;3.00;1.95;;;12.60;56.30;;;;;;9175559;19;20031;-66
2022/03/14 02:04:19;;;;;;;2.83;2.13;;;12.50;56.30;;;;;;9179000;19;20010;-68
2022/03/14 02:07:24;;;;;;;2.63;2.03;;;12.50;56.40;;;;;;9176853;19;20026;-67
2022/03/14 02:10:29;;;;;;;2.55;2.03;;;12.50;56.40;;;;;;9174781;19;20015;-65
2022/03/14 02:13:34;;;;;;;2.10;1.75;;;12.50;56.50;;;;;;9177368;19;20378;-68
2022/03/14 02:16:39;;;;;;;5.22;2.00;;;12.50;56.50;;;;;;9177994;19;20025;-69
2022/03/14 02:19:46;;;;;;;2.92;2.08;;;12.40;56.60;;;;;;9173395;19;20476;-68
2022/03/14 02:22:54;;;;;;;2.70;1.92;;;12.40;56.70;;;;;;9182365;19;20021;-66
2022/03/14 02:25:59;;;;;;;2.97;2.35;;;12.40;56.80;;;;;;9185070;19;20015;-65
2022/03/14 02:29:05;;;;;;;2.83;1.88;;;12.40;56.80;;;;;;9185854;19;20093;-66
2022/03/14 02:32:11;;;;;;;2.30;1.90;;;12.40;57.00;;;;;;9187140;19;20014;-67
2022/03/14 02:35:16;;;;;;;3.92;2.60;;;12.40;57.10;;;;;;9185630;19;20014;-67
2022/03/14 02:38:25;;;;;;;8.45;2.10;;;12.40;57.10;;;;;;9184996;19;20018;-68
2022/03/14 02:41:32;;;;;;;2.33;1.80;;;12.40;57.20;;;;;;9184902;19;20018;-66
2022/03/14 02:44:42;;;;;;;2.67;2.00;;;12.40;57.30;;;;;;9184689;19;20393;-67
2022/03/14 02:47:47;;;;;;;3.08;2.05;;;12.40;57.30;;;;;;9184615;19;20052;-65
2022/03/14 02:50:52;;;;;;;2.67;1.83;;;12.30;57.40;;;;;;9182474;19;20015;-66
2022/03/14 02:54:02;;;;;;;2.88;1.90;;;12.30;57.40;;;;;;9184692;19;20029;-68
2022/03/14 02:57:09;;;;;;;2.10;1.75;;;12.30;57.50;;;;;;9182957;19;20018;-67
2022/03/14 03:00:15;;;;;;;4.82;2.00;;;12.30;57.50;;;;;;9186240;19;20022;-67
2022/03/14 03:03:20;;;;;;;2.60;1.80;;;12.30;57.60;;;;;;9183549;19;20010;-70
2022/03/14 03:06:25;;;;;;;2.72;1.60;;;12.30;57.60;;;;;;9184923;19;20022;-69
2022/03/14 03:09:33;;;;;;;2.55;1.73;;;12.30;57.70;;;;;;9181566;19;20047;-66
2022/03/14 03:12:40;;;;;;;2.75;2.10;;;12.30;57.80;;;;;;9183137;19;20015;-68
2022/03/14 03:15:46;;;;;;;3.13;1.80;;;12.30;57.80;;;;;;9184333;19;20895;-67
2022/03/14 03:18:51;;;;;;;4.78;2.00;;;12.30;57.80;;;;;;9185439;19;20011;-67
2022/03/14 03:21:56;;;;;;;2.88;1.90;;;12.30;57.90;;;;;;9178957;19;20006;-67
2022/03/14 03:25:04;;;;;;;2.20;1.83;;;12.30;57.90;;;;;;9182276;19;20018;-68
2022/03/14 03:28:09;;;;;;;3.55;1.98;;;12.30;58.10;;;;;;9180867;19;20051;-68
2022/03/14 03:31:16;;;;;;;2.30;1.85;;;12.30;58.10;;;;;;9182583;19;20019;-67
2022/03/14 03:34:22;;;;;;;3.50;2.22;;;12.20;58.10;;;;;;9182608;19;20077;-68
2022/03/14 03:37:27;;;;;;;2.65;2.25;;;12.20;58.10;;;;;;9182704;19;20475;-67
2022/03/14 03:40:34;;;;;;;2.97;2.00;;;12.20;58.20;;;;;;9183842;19;20018;-66
2022/03/14 03:43:39;;;;;;;3.50;2.20;;;12.20;58.30;;;;;;9182100;19;20381;-67
2022/03/14 03:46:44;;;;;;;2.75;1.90;;;12.20;58.30;;;;;;9180935;19;20034;-66
2022/03/14 03:49:50;;;;;;;5.75;2.10;;;12.20;58.40;;;;;;9182381;19;20021;-66
2022/03/14 03:52:55;;;;;;;3.38;2.17;;;12.20;58.40;;;;;;9183140;19;20018;-67
2022/03/14 03:56:02;;;;;;;2.22;1.95;;;12.10;58.40;;;;;;9183406;19;20018;-69
2022/03/14 03:59:07;;;;;;;3.50;2.33;;;12.20;58.60;;;;;;9183794;19;20034;-67
2022/03/14 04:02:12;;;;;;;3.17;2.30;;;12.10;58.60;;;;;;9182155;19;20015;-67
2022/03/14 04:05:21;;;;;;;2.65;1.90;;;12.10;58.70;;;;;;9180812;19;20015;-66
2022/03/14 04:08:30;;;;;;;3.72;2.08;;;12.10;58.80;;;;;;9182486;19;20486;-69
2022/03/14 04:11:39;;;;;;;2.58;2.13;;;12.10;58.90;;;;;;9180504;19;20028;-68
2022/03/14 04:14:44;;;;;;;2.72;2.15;;;12.10;59.10;;;;;;9182392;19;20014;-68
2022/03/14 04:17:49;;;;;;;2.88;2.00;;;12.10;59.10;;;;;;9181422;19;20021;-66
2022/03/14 04:20:55;;;;;;;2.10;1.85;;;12.00;59.20;;;;;;9176872;19;20019;-67
2022/03/14 04:24:03;;;;;;;3.38;2.22;;;12.10;59.40;;;;;;9183439;19;20055;-68
2022/03/14 04:27:11;;;;;;;2.85;2.20;;;12.00;59.40;;;;;;9180083;19;20011;-69
2022/03/14 04:30:16;;;;;;;2.83;2.20;;;12.00;59.60;;;;;;9182188;19;20014;-67
2022/03/14 04:33:21;;;;;;;2.58;2.25;;;12.00;59.70;;;;;;9181965;19;20021;-68
2022/03/14 04:36:26;;;;;;;3.15;2.05;;;12.00;59.80;;;;;;9181867;19;20028;-67
2022/03/14 04:39:31;;;;;;;4.10;2.25;;;12.00;59.90;;;;;;9182639;19;20015;-69
2022/03/14 04:42:40;;;;;;;3.45;2.50;;;12.00;60.00;;;;;;9180542;19;20100;-69
2022/03/14 04:45:45;;;;;;;5.22;2.20;;;12.00;60.20;;;;;;9177683;19;20628;-69
2022/03/14 04:48:50;;;;;;;2.80;2.22;;;11.90;60.90;;;;;;9181784;19;20015;-68
2022/03/14 04:51:55;;;;;;;4.93;2.53;;;12.00;60.40;;;;;;9177792;19;20372;-68
2022/03/14 04:55:02;;;;;;;4.03;2.50;;;11.90;60.50;;;;;;9178919;19;20051;-69
2022/03/14 04:58:12;;;;;;;3.63;2.42;;;11.90;60.70;;;;;;9179287;19;20442;-69
2022/03/14 05:01:23;;;;;;;4.53;2.50;;;11.90;60.90;;;;;;9180998;19;20015;-69
2022/03/14 05:04:28;;;;;;;5.05;2.70;;;11.90;60.90;;;;;;9179511;19;20014;-69
2022/03/14 05:07:33;;;;;;;3.95;2.65;;;11.80;61.00;;;;;;9179403;19;20520;-70
2022/03/14 05:10:38;;;;;;;3.90;2.53;;;11.80;61.10;;;;;;9177815;19;20029;-68
2022/03/14 05:13:46;;;;;;;4.03;2.83;;;11.80;61.20;;;;;;9178128;19;20013;-69
2022/03/14 05:16:51;;;;;;;3.47;2.58;;;11.80;61.40;;;;;;9178848;19;20733;-67
2022/03/14 05:19:56;;;;;;;4.75;2.50;;;11.80;61.40;;;;;;9175064;19;20021;-66
2022/03/14 05:23:01;;;;;;;4.85;3.08;;;11.70;62.20;;;;;;9178786;19;20026;-68
2022/03/14 05:26:07;;;;;;;3.97;2.97;;;11.70;61.70;;;;;;9178603;19;20014;-67
2022/03/14 05:29:15;;;;;;;3.53;2.65;;;11.70;61.80;;;;;;9177869;19;20084;-68
2022/03/14 05:32:20;;;;;;;5.10;3.22;;;11.70;62.10;;;;;;9176786;19;20436;-68
2022/03/14 05:35:25;;;;;;;4.25;3.20;;;11.70;62.10;;;;;;9178316;19;20022;-69
2022/03/14 05:38:31;;;;;;;4.57;3.00;;;11.70;62.20;;;;;;9179848;19;20021;-66
2022/03/14 05:41:36;;;;;;;4.30;2.97;;;11.60;62.30;;;;;;9177107;19;20343;-67
2022/03/14 05:44:44;;;;;;;3.60;2.80;;;11.60;62.40;;;;;;9178149;19;20537;-68
2022/03/14 05:47:49;;;;;;;4.35;2.90;;;11.60;62.60;;;;;;9174044;19;20025;-69
2022/03/14 05:50:54;;;;;;;3.30;2.80;;;11.60;62.60;;;;;;9177674;19;20011;-67
2022/03/14 05:54:00;;;;;;;4.80;3.15;;;11.60;62.80;;;;;;9178233;19;20022;-66
2022/03/14 05:57:05;;;;;;;4.35;3.25;;;11.60;62.90;;;;;;9182663;19;20030;-67
2022/03/14 06:00:22;;;;;;;8.63;3.17;;;11.50;63.00;;;;;;9187042;19;20057;-69
2022/03/14 06:03:29;;;;;;;6.60;3.05;;;11.50;63.30;;;;;;9187852;19;20019;-68
2022/03/14 06:06:34;;;;;;;4.15;3.17;;;11.50;63.20;;;;;;9186551;19;20022;-67
2022/03/14 06:09:39;;;;;;;5.95;3.47;;;11.50;63.30;;;;;;9183167;19;20042;-68
2022/03/14 06:12:45;;;;;;;4.72;3.20;;;11.50;63.40;;;;;;9182771;19;20460;-69
2022/03/14 06:15:53;;;;;;;4.32;3.35;;;11.50;63.60;;;;;;9186612;19;20371;-67
2022/03/14 06:18:58;;;;;;;6.68;3.33;;;11.50;63.80;;;;;;9184460;19;20014;-68
2022/03/14 06:22:03;;;;;;;5.70;4.18;;;11.40;63.70;;;;;;9179786;19;20508;-67
2022/03/14 06:25:14;;;;;;;4.88;3.55;;;11.40;63.80;;;;;;9181385;19;20018;-68
2022/03/14 06:28:19;;;;;;;7.75;3.58;;;11.40;64.00;;;;;;9186908;19;20022;-67
2022/03/14 06:31:27;;;;;;;6.57;3.33;;;11.40;64.10;;;;;;9184244;19;20060;-67
2022/03/14 06:34:32;;;;;;;5.20;3.60;;;11.40;64.30;;;;;;9185506;19;20399;-66
2022/03/14 06:37:38;;;;;;;5.43;3.60;;;11.40;64.30;;;;;;9184552;19;20019;-65
2022/03/14 06:40:43;;;;;;;7.97;4.93;;;11.30;64.40;;;;;;9186798;19;20022;-66
2022/03/14 06:43:49;;;;;;;6.53;4.53;;;11.30;64.50;;;;;;9187661;19;20015;-68
2022/03/14 06:46:57;;;;;;;6.18;3.75;;;11.30;64.60;;;;;;9186190;19;20022;-67
2022/03/14 06:50:02;;;;;;;5.45;4.00;;;11.30;64.80;;;;;;9185789;19;20467;-65
2022/03/14 06:53:07;;;;;;;6.22;4.40;;;11.30;64.80;;;;;;9181146;19;20028;-67
2022/03/14 06:56:16;;;;;;;6.75;3.92;;;11.30;64.80;;;;;;9177343;19;20718;-68
2022/03/14 06:59:21;;;;;;;7.82;4.68;;;11.30;64.90;;;;;;9181188;19;20395;-67
2022/03/14 07:02:30;;;;;;;10.80;4.95;;;11.30;65.00;;;;;;9179969;19;20479;-65
2022/03/14 07:05:36;;;;;;;7.35;4.72;;;11.30;65.30;;;;;;9182089;19;20014;-68
2022/03/14 07:08:41;;;;;;;7.68;4.30;;;11.30;65.20;;;;;;9178494;19;20038;-68
2022/03/14 07:11:51;;;;;;;7.88;4.60;;;11.30;65.40;;;;;;9175856;19;20034;-66
2022/03/14 07:14:56;;;;;;;8.50;4.50;;;11.30;65.40;;;;;;9177363;19;20418;-66
2022/03/14 07:18:04;;;;;;;8.73;5.40;;;11.30;65.40;;;;;;9175157;19;20025;-66
2022/03/14 07:21:08;;;;;;;6.47;5.00;;;11.30;65.70;;;;;;9171349;19;20048;-67
2022/03/14 07:24:13;;;;;;;11.30;7.25;;;11.30;65.70;;;;;;9173324;19;20022;-66
2022/03/14 07:27:18;;;;;;;6.43;5.07;;;11.30;65.70;;;;;;9175764;19;20824;-66
2022/03/14 07:30:24;;;;;;;8.85;5.20;;;11.30;65.80;;;;;;9178509;19;20060;-67
2022/03/14 07:33:31;;;;;;;7.95;4.95;;;11.30;65.80;;;;;;9171889;19;20014;-66
2022/03/14 07:36:37;;;;;;;8.05;5.03;;;11.30;66.00;;;;;;9174826;19;20046;-64
2022/03/14 07:39:42;;;;;;;10.40;5.93;;;11.30;66.00;;;;;;9174977;19;20051;-67
2022/03/14 07:42:48;;;;;;;7.45;5.00;;;11.30;66.10;;;;;;9167407;19;20022;-67
2022/03/14 07:45:54;;;;;;;6.78;4.72;;;11.30;66.30;;;;;;9178866;19;20025;-67
2022/03/14 07:49:02;;;;;;;8.18;5.60;;;11.30;66.30;;;;;;9168012;19;20014;-67
2022/03/14 07:52:08;;;;;;;7.50;5.38;;;11.30;66.40;;;;;;9177122;19;20028;-67
2022/03/14 07:55:13;;;;;;;6.80;5.53;;;11.30;66.40;;;;;;9178017;19;20018;-66
2022/03/14 07:58:19;;;;;;;8.35;5.63;;;11.30;66.50;;;;;;9176069;19;20026;-68
2022/03/14 08:01:24;;;;;;;8.75;6.18;;;11.30;66.60;;;;;;9176343;19;20371;-67
2022/03/14 08:04:33;;;;;;;9.10;7.00;;;11.30;66.60;;;;;;9175935;19;20015;-68
2022/03/14 08:07:40;;;;;;;9.10;6.72;;;11.30;66.90;;;;;;9173664;19;20022;-66
2022/03/14 08:10:45;;;;;;;11.70;7.78;;;11.30;66.80;;;;;;9175038;19;20018;-67
2022/03/14 08:13:50;;;;;;;10.32;6.90;;;11.30;66.90;;;;;;9172530;19;20378;-65
2022/03/14 08:16:55;;;;;;;11.20;7.88;;;11.30;66.90;;;;;;9175327;19;20018;-68
2022/03/14 08:20:03;;;;;;;11.65;7.70;;;11.30;67.00;;;;;;9168758;19;20018;-68
2022/03/14 08:23:14;;;;;;;10.73;7.65;;;11.30;67.10;;;;;;9171649;19;20111;-67
2022/03/14 08:26:21;;;;;;;11.25;8.23;;;11.30;67.70;;;;;;9172606;19;20029;-67
2022/03/14 08:29:26;;;;;;;14.10;9.52;;;11.30;67.10;;;;;;9174436;19;20029;-68
2022/03/14 08:32:32;;;;;;;12.65;9.13;;;11.30;67.20;;;;;;9176532;19;20113;-67
2022/03/14 08:35:39;;;;;;;13.52;9.55;;;11.30;67.30;;;;;;9177386;19;20044;-67
2022/03/14 08:38:44;;;;;;;18.38;10.43;;;11.30;67.50;;;;;;9179512;19;20046;-65
2022/03/14 08:41:49;;;;;;;14.30;10.02;;;11.30;67.40;;;;;;9177837;19;20472;-66
2022/03/14 08:44:54;;;;;;;16.92;10.35;;;11.30;67.40;;;;;;9179151;19;20023;-66
2022/03/14 08:47:59;;;;;;;14.82;10.63;;;11.30;67.50;;;;;;9174987;19;20010;-67
2022/03/14 08:51:07;;;;;;;14.48;10.25;;;11.30;67.40;;;;;;9178326;19;20033;-67
2022/03/14 08:54:12;;;;;;;19.83;11.07;;;11.30;67.70;;;;;;9174507;19;20022;-66
2022/03/14 08:57:17;;;;;;;16.02;10.77;;;11.30;67.60;;;;;;9179731;19;20085;-66
2022/03/14 09:00:24;;;;;;;18.88;11.45;;;11.30;67.70;;;;;;9180445;19;20029;-66
2022/03/14 09:03:30;;;;;;;15.73;10.40;;;11.30;67.60;;;;;;9177368;19;20055;-68
2022/03/14 09:06:37;;;;;;;21.52;11.05;;;11.30;67.70;;;;;;9182309;19;20336;-67
2022/03/14 09:09:43;;;;;;;18.55;10.77;;;11.30;67.80;;;;;;9176794;19;20022;-68
2022/03/14 09:12:48;;;;;;;20.65;11.40;;;11.40;67.80;;;;;;9172017;19;20015;-66
2022/03/14 09:15:55;;;;;;;18.38;12.45;;;11.40;67.80;;;;;;9175026;19;20026;-69
2022/03/14 09:19:00;;;;;;;17.45;11.73;;;11.40;67.80;;;;;;9176823;19;20010;-68
2022/03/14 09:22:09;;;;;;;20.52;12.18;;;11.40;67.80;;;;;;9170474;19;20063;-67
2022/03/14 09:25:14;;;;;;;16.75;10.38;;;11.40;67.90;;;;;;9177890;19;20015;-69
2022/03/14 09:28:20;;;;;;;25.25;12.43;;;11.40;67.90;;;;;;9180721;19;20041;-67
2022/03/14 09:31:24;;;;;;;20.80;11.73;;;11.40;67.80;;;;;;9178470;19;20019;-67
2022/03/14 09:34:31;;;;;;;21.50;11.52;;;11.40;67.80;;;;;;9177726;19;20030;-66
2022/03/14 09:37:39;;;;;;;24.55;11.68;;;11.40;67.90;;;;;;9176501;19;20015;-67
2022/03/14 09:40:47;;;;;;;22.50;12.05;;;11.40;68.00;;;;;;9178969;19;20019;-68
2022/03/14 09:43:54;;;;;;;21.77;12.23;;;11.50;68.00;;;;;;9175889;19;20018;-67
2022/03/14 09:47:03;;;;;;;17.05;11.25;;;11.50;68.00;;;;;;9176835;19;20386;-67
2022/03/14 09:50:11;;;;;;;17.35;11.60;;;11.50;68.00;;;;;;9176642;19;20586;-67
2022/03/14 09:53:20;;;;;;;19.13;11.73;;;11.50;68.00;;;;;;9173988;19;20029;-67
2022/03/14 09:56:25;;;;;;;20.67;12.95;;;11.50;68.10;;;;;;9173185;19;20018;-66
2022/03/14 09:59:30;;;;;;;17.88;11.55;;;11.50;68.00;;;;;;9176350;19;20011;-68
2022/03/14 10:02:39;;;;;;;22.30;11.50;;;11.50;68.00;;;;;;9178336;19;20048;-68
2022/03/14 10:05:46;;;;;;;15.63;11.45;;;11.50;68.00;;;;;;9179309;19;20018;-66
2022/03/14 10:08:54;;;;;;;22.40;11.10;;;11.60;68.10;;;;;;9174789;19;20359;-67
2022/03/14 10:11:59;;;;;;;21.73;11.88;;;11.60;68.20;;;;;;9176054;19;20019;-67
2022/03/14 10:15:06;;;;;;;22.30;12.85;;;11.60;68.10;;;;;;9178534;19;20082;-67
2022/03/14 10:18:13;;;;;;;16.80;11.40;;;11.60;68.20;;;;;;9178053;19;20691;-67
2022/03/14 10:21:31;;;;;;;16.63;11.00;;;11.60;68.20;;;;;;9172435;19;20029;-67
2022/03/14 10:24:39;;;;;;;18.75;12.20;;;11.60;68.50;;;;;;9178502;19;20019;-68
2022/03/14 10:27:48;;;;;;;19.25;11.93;;;11.70;68.40;;;;;;9176206;19;20021;-68
2022/03/14 10:30:57;;;;;;;19.27;11.05;;;11.70;68.40;;;;;;9179469;19;20460;-66
2022/03/14 10:34:04;;;;;;;19.17;11.93;;;11.70;68.40;;;;;;9175651;19;20015;-66
2022/03/14 10:37:14;;;;;;;23.17;12.15;;;11.70;68.40;;;;;;9178814;19;20502;-68
2022/03/14 10:40:22;;;;;;;20.77;11.68;;;11.80;68.60;;;;;;9176930;19;20047;-67
2022/03/14 10:43:29;;;;;;;17.02;10.05;;;11.80;68.50;;;;;;9181618;19;20037;-65
2022/03/14 10:46:34;;;;;;;17.02;11.63;;;11.80;68.50;;;;;;9187364;19;20823;-67
2022/03/14 10:49:40;;;;;;;17.40;10.13;;;11.90;68.50;;;;;;9188221;19;20018;-65
2022/03/14 10:52:45;;;;;;;20.30;11.05;;;12.00;68.70;;;;;;9184481;19;20033;-66
2022/03/14 10:56:00;;;;;;;20.25;11.25;;;12.00;68.60;;;;;;9182684;19;20360;-66
2022/03/14 10:59:09;;;;;;;22.05;11.35;;;12.10;68.80;;;;;;9185986;19;20046;-67
2022/03/14 11:02:17;;;;;;;25.27;11.75;;;12.10;68.50;;;;;;9186536;19;20025;-67
2022/03/14 11:05:24;;;;;;;17.02;9.93;;;12.10;68.40;;;;;;9184024;19;20019;-69
2022/03/14 11:08:31;;;;;;;20.75;10.88;;;12.20;68.40;;;;;;9183080;19;20014;-68
2022/03/14 11:11:39;;;;;;;19.92;10.05;;;12.30;68.40;;;;;;9186080;19;20789;-67
2022/03/14 11:14:52;;;;;;;19.27;10.45;;;12.30;68.30;;;;;;9182186;19;20022;-69
2022/03/14 11:17:57;;;;;;;24.65;10.95;;;12.40;68.20;;;;;;9184113;19;20356;-67
2022/03/14 11:21:11;;;;;;;19.38;11.18;;;12.50;68.10;;;;;;9179174;19;20030;-68
2022/03/14 11:24:16;;;;;;;23.30;11.63;;;12.50;68.00;;;;;;9183174;19;20380;-67
2022/03/14 11:27:26;;;;;;;24.73;11.63;;;12.60;68.00;;;;;;9184506;19;20015;-68
2022/03/14 11:30:34;;;;;;;19.52;11.10;;;12.60;68.00;;;;;;9185158;19;20010;-67
2022/03/14 11:33:41;;;;;;;22.35;11.90;;;12.60;67.90;;;;;;9184179;19;20044;-66
2022/03/14 11:36:47;;;;;;;21.17;11.10;;;12.70;67.90;;;;;;9184930;19;20019;-66
2022/03/14 11:39:53;;;;;;;18.67;11.00;;;12.70;67.80;;;;;;9183834;19;20593;-67
2022/03/14 11:43:01;;;;;;;18.50;10.10;;;12.70;67.80;;;;;;9182361;19;20103;-68
2022/03/14 11:46:06;;;;;;;20.77;10.02;;;12.80;67.90;;;;;;9182146;19;20021;-64
2022/03/14 11:49:14;;;;;;;16.67;8.82;;;12.80;67.80;;;;;;9180693;19;20019;-67
2022/03/14 11:52:24;;;;;;;21.33;9.30;;;12.80;67.70;;;;;;9174176;19;20026;-68
2022/03/14 11:55:30;;;;;;;17.88;9.88;;;12.80;67.70;;;;;;9176476;19;20055;-68
2022/03/14 11:58:41;;;;;;;17.95;10.60;;;12.90;67.70;;;;;;9177763;19;20712;-65
2022/03/14 12:01:50;;;;;;;23.70;9.70;;;12.90;67.60;;;;;;9177365;19;20359;-65
2022/03/14 12:05:02;;;;;;;17.00;9.63;;;13.00;67.70;;;;;;9174856;19;20014;-66
2022/03/14 12:09:02;;;;;;;20.33;9.75;;;13.00;67.70;;;;;;9175062;19;20384;-67
2022/03/14 12:12:28;;;;;;;17.40;9.27;;;13.10;67.80;;;;;;9179159;19;20014;-67
2022/03/14 12:15:48;;;;;;;17.50;10.05;;;13.10;67.80;;;;;;9177266;19;20029;-67
2022/03/14 12:18:53;;;;;;;21.73;9.73;;;13.20;67.70;;;;;;9180539;19;20102;-67
2022/03/14 12:21:59;;;;;;;19.13;9.88;;;13.30;67.50;;;;;;9175242;19;20052;-69
2022/03/14 12:25:06;;;;;;;19.52;9.55;;;13.40;67.40;;;;;;9183926;19;20375;-67
2022/03/14 12:28:32;;;;;;;21.65;10.23;;;13.50;67.40;;;;;;9179415;19;20010;-67
2022/03/14 12:31:40;;;;;;;21.17;10.88;;;13.60;67.40;;;;;;9182263;19;20033;-66
2022/03/14 12:34:57;;;;;;;21.38;10.70;;;13.70;67.20;;;;;;9173500;19;20014;-68
2022/03/14 12:38:13;;;;;;;20.23;11.60;;;13.70;67.10;;;;;;9179615;19;20010;-67
2022/03/14 12:41:25;;;;;;;21.58;10.95;;;13.80;67.10;;;;;;9180171;19;20535;-67
2022/03/14 12:44:30;;;;;;;24.25;11.25;;;13.90;67.10;;;;;;9179688;19;20029;-67
2022/03/14 12:47:42;;;;;;;20.70;11.85;;;14.00;67.00;;;;;;9180826;19;20019;-67
2022/03/14 12:51:04;;;;;;;20.58;9.98;;;14.00;66.90;;;;;;9180374;19;20094;-69
2022/03/14 12:54:09;;;;;;;24.58;10.82;;;14.10;66.80;;;;;;9179389;19;20011;-67
2022/03/14 12:57:17;;;;;;;18.25;10.52;;;14.20;66.60;;;;;;9179780;19;20034;-66
2022/03/14 13:00:22;;;;;;;25.52;9.20;;;14.30;66.60;;;;;;9179545;19;20486;-67
2022/03/14 13:03:31;;;;;;;17.27;8.80;;;14.40;66.40;;;;;;9180656;19;20010;-68
2022/03/14 13:06:40;;;;;;;20.08;7.97;;;14.50;66.30;;;;;;9178821;19;20457;-66
2022/03/14 13:09:54;;;;;;;28.85;8.65;;;14.60;66.10;;;;;;9178650;19;20021;-66
2022/03/14 13:12:59;;;;;;;19.75;7.22;;;14.60;65.90;;;;;;9178756;19;20502;-67
2022/03/14 13:16:07;;;;;;;15.90;6.68;;;14.70;65.80;;;;;;9176665;19;20390;-66
2022/03/14 13:19:20;;;;;;;17.73;7.53;;;14.70;65.60;;;;;;9179366;19;20348;-66
2022/03/14 13:22:26;;;;;;;17.73;6.90;;;14.80;65.40;;;;;;9181383;19;20010;-66
2022/03/14 13:25:34;;;;;;;20.48;7.25;;;14.80;65.30;;;;;;9179901;19;20116;-66
2022/03/14 13:28:41;;;;;;;21.20;6.75;;;14.80;65.20;;;;;;9179249;19;20018;-67
2022/03/14 13:31:48;;;;;;;14.95;6.13;;;14.90;65.10;;;;;;9179082;19;20011;-67
2022/03/14 13:35:11;;;;;;;12.57;5.80;;;14.90;65.00;;;;;;9173688;19;20026;-66
2022/03/14 13:38:30;;;;;;;19.33;5.65;;;15.00;64.80;;;;;;9177064;19;20025;-67
2022/03/14 13:41:35;;;;;;;14.75;5.80;;;15.10;64.80;;;;;;9179201;19;20418;-67
2022/03/14 13:44:40;;;;;;;16.98;6.10;;;15.10;64.70;;;;;;9181298;19;20025;-66
2022/03/14 13:47:48;;;;;;;16.25;6.43;;;15.20;64.60;;;;;;9180160;19;20649;-66
2022/03/14 13:50:56;;;;;;;18.73;6.38;;;15.20;64.50;;;;;;9178621;19;20023;-66
2022/03/14 13:54:09;;;;;;;25.02;6.60;;;15.30;64.30;;;;;;9179842;19;20015;-66
2022/03/14 13:57:17;;;;;;;17.10;6.03;;;15.40;64.20;;;;;;9177774;19;20388;-66
2022/03/14 14:00:24;;;;;;;13.05;5.82;;;15.40;64.00;;;;;;9178236;19;20019;-65
2022/03/14 14:03:29;;;;;;;12.60;5.82;;;15.50;63.90;;;;;;9177919;19;20046;-67
2022/03/14 14:06:45;;;;;;;24.90;7.07;;;15.50;63.70;;;;;;9176423;19;20406;-67
2022/03/14 14:09:52;;;;;;;17.98;6.28;;;15.60;63.40;;;;;;9174638;19;20378;-65
2022/03/14 14:13:02;;;;;;;14.52;5.35;;;15.60;63.40;;;;;;9179313;19;20021;-67
2022/03/14 14:16:18;;;;;;;13.35;5.10;;;15.60;63.20;;;;;;9177009;19;20010;-67
2022/03/14 14:19:24;;;;;;;11.95;5.07;;;15.70;62.90;;;;;;9185676;19;20081;-66
2022/03/14 14:22:33;;;;;;;12.00;4.90;;;15.70;62.90;;;;;;9187657;19;20375;-67
2022/03/14 14:25:38;;;;;;;12.07;4.47;;;15.70;62.80;;;;;;9188798;19;20006;-67
2022/03/14 14:28:43;;;;;;;14.82;4.68;;;15.70;62.70;;;;;;9187844;19;20017;-67
2022/03/14 14:31:50;;;;;;;12.80;5.35;;;15.70;62.60;;;;;;9186412;19;20021;-67
2022/03/14 14:34:57;;;;;;;11.32;4.20;;;15.80;62.50;;;;;;9181281;19;20122;-67
2022/03/14 14:38:06;;;;;;;19.15;5.55;;;15.80;62.30;;;;;;9183392;19;20018;-68
2022/03/14 14:41:13;;;;;;;14.27;4.75;;;15.80;62.20;;;;;;9185792;19;20014;-67
2022/03/14 14:44:18;;;;;;;12.07;4.50;;;15.80;62.10;;;;;;9185110;19;20018;-67
2022/03/14 14:47:25;;;;;;;12.43;4.28;;;15.80;62.00;;;;;;9186563;19;20014;-65
2022/03/14 14:50:30;;;;;;;14.05;4.63;;;15.80;62.00;;;;;;9187520;19;20014;-65
2022/03/14 14:53:40;;;;;;;14.52;4.70;;;15.90;61.80;;;;;;9185326;19;20018;-66
2022/03/14 14:56:46;;;;;;;16.50;4.50;;;15.90;61.60;;;;;;9183040;19;20022;-67
2022/03/14 14:59:52;;;;;;;22.35;4.93;;;15.90;61.60;;;;;;9186796;19;20050;-66
2022/03/14 15:02:57;;;;;;;13.57;3.97;;;15.90;61.50;;;;;;9185377;19;20018;-65
2022/03/14 15:06:02;;;;;;;17.52;5.18;;;15.90;61.50;;;;;;9184219;19;20025;-65
2022/03/14 15:09:10;;;;;;;20.00;5.07;;;15.90;61.30;;;;;;9183537;19;20029;-66
2022/03/14 15:12:15;;;;;;;14.23;4.68;;;15.90;61.20;;;;;;9184725;19;20475;-68
2022/03/14 15:15:21;;;;;;;14.10;4.28;;;15.90;61.10;;;;;;9183680;19;20022;-67
2022/03/14 15:18:25;;;;;;;16.60;4.28;;;16.00;61.00;;;;;;9183503;19;20022;-66
2022/03/14 15:21:31;;;;;;;16.25;4.57;;;16.00;60.90;;;;;;9185164;19;20018;-67
2022/03/14 15:24:38;;;;;;;11.82;4.30;;;16.00;60.70;;;;;;9185229;19;20022;-66
2022/03/14 15:27:44;;;;;;;16.83;4.10;;;16.00;60.50;;;;;;9183599;19;20467;-69
2022/03/14 15:30:49;;;;;;;14.10;4.32;;;16.00;60.60;;;;;;9183189;19;20011;-67
2022/03/14 15:33:54;;;;;;;12.43;3.95;;;16.00;60.50;;;;;;9179699;19;20466;-66
2022/03/14 15:36:59;;;;;;;13.48;4.55;;;16.00;60.50;;;;;;9179576;19;20010;-66
2022/03/14 15:40:08;;;;;;;14.05;4.85;;;16.00;60.30;;;;;;9184059;19;20011;-67
2022/03/14 15:43:14;;;;;;;9.25;4.00;;;16.10;60.20;;;;;;9183190;19;20044;-66
2022/03/14 15:46:19;;;;;;;13.18;4.20;;;16.00;60.10;;;;;;9185886;19;20648;-66
2022/03/14 15:49:24;;;;;;;9.80;4.03;;;16.00;60.10;;;;;;9185695;19;20356;-68
2022/03/14 15:52:29;;;;;;;12.48;4.53;;;16.00;60.00;;;;;;9184053;19;20774;-67
2022/03/14 15:55:38;;;;;;;13.60;5.07;;;16.00;59.90;;;;;;9181039;19;20014;-68
2022/03/14 15:58:45;;;;;;;14.65;5.25;;;15.90;59.80;;;;;;9182588;19;20364;-67
2022/03/14 16:01:50;;;;;;;8.45;4.30;;;15.90;59.80;;;;;;9177318;19;20018;-67
2022/03/14 16:04:56;;;;;;;12.85;4.30;;;15.90;59.80;;;;;;9178635;19;20021;-67